Time;durP1;ratioP1;P1;durP2;ratioP2;P2;SDS_P1;SDS_P2;PMS_P1;PMS_P2;Temp;Humidity;BMP_temperature;BMP_pressure;BME280_temperature;BME280_humidity;BME280_pressure;Samples;Min_cycle;Max_cycle;Signal;HPM_P1;HPM_P2
2021/12/17 00:01:05;;;;;;;12.02;6.03;;;7.80;99.90;;;;;;5011056;28;20038;-78
2021/12/17 00:03:42;;;;;;;13.50;6.13;;;7.80;99.90;;;;;;5010101;28;20395;-79
2021/12/17 00:08:38;;;;;;;11.60;5.43;;;7.80;99.90;;;;;;5011655;28;20566;-78
2021/12/17 00:11:05;;;;;;;12.73;6.35;;;7.80;99.90;;;;;;5011344;28;20104;-79
2021/12/17 00:13:31;;;;;;;11.70;5.90;;;7.80;99.90;;;;;;5010924;28;20033;-79
2021/12/17 00:15:57;;;;;;;13.55;6.85;;;7.80;99.90;;;;;;5013315;28;20030;-79
2021/12/17 00:18:31;;;;;;;12.82;6.63;;;7.80;99.90;;;;;;5013122;28;20026;-79
2021/12/17 00:48:47;;;;;;;17.65;7.20;;;7.70;99.90;;;;;;4994660;28;20076;-78
2021/12/17 00:54:07;;;;;;;14.63;7.68;;;7.70;99.90;;;;;;4991088;28;20064;-76
2021/12/17 00:56:34;;;;;;;15.20;7.40;;;7.70;99.90;;;;;;4995183;28;20026;-79
2021/12/17 00:59:00;;;;;;;17.20;7.13;;;7.70;99.90;;;;;;5010673;28;20034;-79
2021/12/17 01:01:27;;;;;;;15.13;7.43;;;7.70;99.90;;;;;;4991511;28;20030;-78
2021/12/17 01:03:54;;;;;;;14.48;7.03;;;7.70;99.90;;;;;;5011702;28;20109;-79
2021/12/17 01:06:19;;;;;;;13.25;7.30;;;7.70;99.90;;;;;;5011541;28;20042;-79
2021/12/17 01:08:47;;;;;;;15.10;7.47;;;7.70;99.90;;;;;;4976016;28;20032;-79
2021/12/17 01:11:12;;;;;;;15.90;7.30;;;7.70;99.90;;;;;;4992634;28;20057;-78
2021/12/17 01:13:41;;;;;;;12.52;6.35;;;7.70;99.90;;;;;;4993440;28;20084;-79
2021/12/17 01:16:08;;;;;;;14.63;7.18;;;7.70;99.90;;;;;;5011302;28;20038;-79
2021/12/17 01:24:06;;;;;;;13.18;6.80;;;7.70;99.90;;;;;;5010580;28;20026;-79
2021/12/17 01:42:53;;;;;;;16.77;8.13;;;7.70;99.90;;;;;;5025167;22;20338;-91
2021/12/17 01:45:19;;;;;;;16.80;8.55;;;7.70;99.90;;;;;;4992285;28;20034;-90
2021/12/17 01:47:45;;;;;;;18.70;8.38;;;7.70;99.90;;;;;;4989680;28;20029;-89
2021/12/17 01:55:50;;;;;;;13.38;6.03;;;7.70;99.90;;;;;;5001248;28;20042;-91
2021/12/17 02:01:06;;;;;;;13.38;6.35;;;7.70;99.90;;;;;;5006068;28;20087;-91
2021/12/17 02:03:32;;;;;;;13.60;6.32;;;7.70;99.90;;;;;;4985851;28;20503;-89
2021/12/17 02:06:00;;;;;;;10.93;6.25;;;7.70;99.90;;;;;;4985509;28;20030;-90
2021/12/17 02:08:25;;;;;;;10.82;4.93;;;7.70;99.90;;;;;;4988221;28;20025;-90
2021/12/17 02:32:38;;;;;;;11.63;4.97;;;7.70;99.90;;;;;;5011028;28;20033;-92
2021/12/17 02:37:40;;;;;;;11.95;4.75;;;7.70;99.90;;;;;;5019992;28;20053;-91
2021/12/17 02:42:31;;;;;;;11.23;4.45;;;7.70;99.90;;;;;;5002052;28;20391;-91
2021/12/17 02:47:59;;;;;;;12.15;5.20;;;7.70;99.90;;;;;;5018557;28;20395;-91
2021/12/17 02:50:25;;;;;;;12.38;5.80;;;7.70;99.90;;;;;;4989977;28;20121;-91
2021/12/17 02:52:54;;;;;;;10.43;5.55;;;7.60;99.90;;;;;;4988131;28;20296;-91
2021/12/17 02:55:21;;;;;;;10.10;4.70;;;7.70;99.90;;;;;;4988362;28;20042;-91
2021/12/17 02:57:48;;;;;;;12.40;5.00;;;7.70;99.90;;;;;;4989520;28;20140;-89
2021/12/17 03:00:14;;;;;;;11.13;5.63;;;7.70;99.90;;;;;;4987129;28;20033;-90
2021/12/17 03:02:41;;;;;;;13.23;5.35;;;7.70;99.90;;;;;;4989252;28;20036;-91
2021/12/17 03:05:08;;;;;;;9.18;4.72;;;7.70;99.90;;;;;;4990576;28;20028;-91
2021/12/17 03:07:38;;;;;;;11.00;5.30;;;7.70;99.90;;;;;;4988390;28;20034;-90
2021/12/17 03:10:09;;;;;;;11.67;4.70;;;7.70;99.90;;;;;;4993526;28;20460;-91
2021/12/17 03:23:39;;;;;;;10.10;4.60;;;7.60;99.90;;;;;;5005881;28;20022;-91
2021/12/17 03:26:13;;;;;;;8.43;4.35;;;7.60;99.90;;;;;;4991756;28;20026;-90
2021/12/17 03:28:42;;;;;;;9.60;4.53;;;7.60;99.90;;;;;;5011591;28;20050;-91
2021/12/17 03:31:09;;;;;;;10.57;4.75;;;7.60;99.90;;;;;;4990726;28;20030;-91
2021/12/17 03:33:38;;;;;;;9.15;4.07;;;7.60;99.90;;;;;;4986623;28;20041;-90
2021/12/17 03:36:04;;;;;;;7.80;3.60;;;7.60;99.90;;;;;;4979852;28;20022;-90
2021/12/17 03:38:30;;;;;;;8.27;3.33;;;7.60;99.90;;;;;;4983272;28;20042;-91
2021/12/17 03:43:56;;;;;;;4.13;2.08;;;7.60;99.90;;;;;;4996975;28;20566;-90
2021/12/17 03:46:23;;;;;;;7.03;3.45;;;7.60;99.90;;;;;;4989940;28;20037;-92
2021/12/17 03:48:49;;;;;;;8.25;2.92;;;7.60;99.90;;;;;;4987879;28;20129;-91
2021/12/17 03:51:16;;;;;;;6.13;2.85;;;7.60;99.90;;;;;;4985620;28;20175;-90
2021/12/17 03:53:47;;;;;;;6.80;2.72;;;7.50;99.90;;;;;;4985872;28;20038;-90
2021/12/17 03:56:24;;;;;;;7.53;3.08;;;7.50;99.90;;;;;;4989085;28;20025;-91
2021/12/17 03:58:52;;;;;;;6.00;3.00;;;7.60;99.90;;;;;;5004170;28;20144;-91
2021/12/17 04:01:19;;;;;;;7.10;3.63;;;7.60;99.90;;;;;;4988182;28;20025;-91
2021/12/17 04:03:45;;;;;;;7.28;3.20;;;7.60;99.90;;;;;;4986863;28;20033;-91
2021/12/17 04:06:12;;;;;;;8.73;3.63;;;7.60;99.90;;;;;;4987602;28;20029;-90
2021/12/17 04:08:38;;;;;;;8.02;4.10;;;7.60;99.90;;;;;;4985345;28;20510;-91
2021/12/17 04:11:08;;;;;;;8.15;3.85;;;7.60;99.90;;;;;;4988150;28;20479;-90
2021/12/17 04:13:38;;;;;;;6.68;3.58;;;7.60;99.90;;;;;;4984887;28;20040;-91
2021/12/17 04:16:08;;;;;;;5.95;2.97;;;7.60;99.90;;;;;;5000856;28;20033;-90
2021/12/17 04:18:41;;;;;;;4.32;2.00;;;7.60;99.90;;;;;;5010468;28;20018;-89
2021/12/17 04:21:15;;;;;;;4.05;2.45;;;7.60;99.90;;;;;;4997645;28;20033;-90
2021/12/17 04:23:42;;;;;;;3.17;1.60;;;7.50;99.90;;;;;;4986694;28;20034;-90
2021/12/17 04:26:08;;;;;;;4.38;2.08;;;7.60;99.90;;;;;;5004294;28;20028;-91
2021/12/17 04:28:40;;;;;;;3.80;2.28;;;7.50;99.90;;;;;;4987777;28;20026;-91
2021/12/17 04:31:06;;;;;;;5.32;1.85;;;7.50;99.90;;;;;;4987673;28;20018;-91
2021/12/17 04:33:34;;;;;;;4.35;1.85;;;7.50;99.90;;;;;;4984610;28;20033;-92
2021/12/17 04:35:59;;;;;;;4.15;1.83;;;7.50;99.90;;;;;;5002364;28;20029;-91
2021/12/17 04:38:26;;;;;;;3.55;1.80;;;7.50;99.90;;;;;;4985319;28;20037;-91
2021/12/17 04:40:53;;;;;;;4.60;2.25;;;7.50;99.90;;;;;;5004265;28;20035;-91
2021/12/17 04:59:39;;;;;;;4.93;2.00;;;7.40;99.90;;;;;;5003302;28;20399;-90
2021/12/17 05:02:05;;;;;;;3.92;1.85;;;7.40;99.90;;;;;;4983741;28;20025;-91
2021/12/17 05:04:31;;;;;;;6.72;2.75;;;7.50;99.90;;;;;;4984213;28;20033;-91
2021/12/17 05:06:57;;;;;;;4.65;2.15;;;7.40;99.90;;;;;;4987285;28;20030;-90
2021/12/17 05:09:34;;;;;;;6.05;2.65;;;7.50;99.90;;;;;;4993264;28;20020;-92
2021/12/17 05:19:58;;;;;;;4.13;1.52;;;7.40;99.90;;;;;;5001819;28;20030;-90
2021/12/17 05:22:26;;;;;;;4.10;1.52;;;7.40;99.90;;;;;;4986776;28;20061;-91
2021/12/17 05:24:52;;;;;;;3.22;1.58;;;7.40;99.90;;;;;;4986294;28;20029;-90
2021/12/17 05:27:18;;;;;;;4.05;1.40;;;7.40;99.90;;;;;;4985453;28;20030;-91
2021/12/17 05:29:45;;;;;;;3.45;1.50;;;7.50;99.90;;;;;;4989195;28;20040;-91
2021/12/17 05:32:11;;;;;;;4.88;1.75;;;7.50;99.90;;;;;;4987888;28;20037;-91
2021/12/17 05:34:37;;;;;;;4.43;1.85;;;7.40;99.90;;;;;;4993490;28;20038;-91
2021/12/17 05:37:04;;;;;;;5.28;2.10;;;7.40;99.90;;;;;;4987382;28;20022;-91
2021/12/17 05:39:31;;;;;;;5.38;2.08;;;7.40;99.90;;;;;;4983813;28;20026;-90
2021/12/17 05:42:06;;;;;;;4.63;2.17;;;7.40;99.90;;;;;;4985814;28;20018;-91
2021/12/17 05:44:32;;;;;;;6.95;2.95;;;7.40;99.90;;;;;;4983395;28;20031;-89
2021/12/17 05:46:57;;;;;;;7.43;2.13;;;7.30;99.90;;;;;;5009455;28;20012;-90
2021/12/17 05:49:47;;;;;;;4.70;1.95;;;7.20;99.90;;;;;;5004530;28;20041;-91
2021/12/17 05:52:16;;;;;;;4.47;2.00;;;7.20;99.90;;;;;;4996349;28;20109;-91
2021/12/17 05:54:42;;;;;;;3.55;1.48;;;7.20;99.90;;;;;;4994207;28;20048;-90
2021/12/17 05:57:07;;;;;;;3.97;1.50;;;7.10;99.90;;;;;;4991696;28;20497;-90
2021/12/17 05:59:35;;;;;;;5.72;2.17;;;7.20;99.90;;;;;;5007618;28;20026;-90
2021/12/17 06:02:07;;;;;;;5.85;2.80;;;7.10;99.90;;;;;;4992956;28;20102;-92
2021/12/17 06:04:33;;;;;;;6.88;2.42;;;7.10;99.90;;;;;;5001434;28;20034;-92
2021/12/17 06:06:59;;;;;;;5.85;2.10;;;7.00;99.90;;;;;;4985492;28;20057;-92
2021/12/17 06:09:24;;;;;;;5.30;1.58;;;7.10;99.90;;;;;;4987194;28;20052;-91
2021/12/17 06:11:51;;;;;;;4.88;1.92;;;7.10;99.90;;;;;;4986866;28;20109;-91
2021/12/17 06:14:17;;;;;;;5.40;2.38;;;7.10;99.90;;;;;;4996309;28;20089;-91
2021/12/17 06:16:43;;;;;;;4.93;2.00;;;7.10;99.90;;;;;;4988914;28;20037;-92
2021/12/17 06:19:13;;;;;;;4.10;1.42;;;7.20;99.90;;;;;;4986795;28;20032;-91
2021/12/17 06:21:48;;;;;;;4.63;2.08;;;7.10;99.90;;;;;;4988581;28;20037;-90
2021/12/17 06:24:14;;;;;;;4.18;1.75;;;7.10;99.90;;;;;;4987798;28;20030;-89
2021/12/17 06:26:40;;;;;;;4.10;1.48;;;7.10;99.90;;;;;;4988444;28;20483;-90
2021/12/17 06:29:09;;;;;;;4.82;1.63;;;7.10;99.90;;;;;;4985134;28;20036;-91
2021/12/17 06:31:35;;;;;;;3.95;1.40;;;7.10;99.90;;;;;;5000314;28;20079;-90
2021/12/17 06:34:12;;;;;;;5.65;2.25;;;7.10;99.90;;;;;;4987329;28;20025;-90
2021/12/17 06:36:44;;;;;;;4.40;1.67;;;7.10;99.90;;;;;;4991598;28;20037;-91
2021/12/17 06:39:10;;;;;;;4.78;1.95;;;7.10;99.90;;;;;;4989970;28;20030;-89
2021/12/17 06:41:37;;;;;;;5.07;1.67;;;7.10;99.90;;;;;;4993256;28;20490;-90
2021/12/17 06:44:06;;;;;;;4.80;1.40;;;7.10;99.90;;;;;;5011741;28;20061;-90
2021/12/17 06:46:50;;;;;;;4.13;1.52;;;7.00;99.90;;;;;;4991636;28;20033;-89
2021/12/17 06:49:27;;;;;;;4.70;1.45;;;7.00;99.90;;;;;;4995880;28;20026;-91
2021/12/17 06:54:55;;;;;;;5.63;1.73;;;6.90;99.90;;;;;;5017658;28;20095;-89
2021/12/17 07:21:30;;;;;;;5.10;2.10;;;6.80;99.90;;;;;;5017044;28;20112;-90
2021/12/17 07:34:45;;;;;;;10.90;3.90;;;7.20;99.90;;;;;;5010869;28;20060;-90
2021/12/17 07:39:40;;;;;;;12.57;3.83;;;7.00;99.90;;;;;;5007304;28;20074;-91
2021/12/17 07:42:06;;;;;;;8.00;3.22;;;6.90;99.90;;;;;;4990239;28;20088;-89
2021/12/17 07:44:32;;;;;;;12.18;4.90;;;6.90;99.90;;;;;;4985878;28;20037;-89
2021/12/17 07:46:58;;;;;;;8.43;3.78;;;6.90;99.90;;;;;;4993700;28;20549;-90
2021/12/17 07:49:24;;;;;;;9.48;4.25;;;6.90;99.90;;;;;;4994121;28;20068;-91
2021/12/17 07:51:50;;;;;;;10.43;4.50;;;6.90;99.90;;;;;;4996194;28;20045;-89
2021/12/17 07:54:17;;;;;;;11.88;4.43;;;6.90;99.90;;;;;;5002399;28;20056;-90
2021/12/17 07:56:43;;;;;;;11.13;4.38;;;6.90;99.90;;;;;;4995689;28;20060;-88
2021/12/17 07:59:10;;;;;;;9.98;4.60;;;6.90;99.90;;;;;;4988673;28;20033;-91
2021/12/17 08:01:40;;;;;;;14.82;6.38;;;7.00;99.90;;;;;;4988647;28;20029;-90
2021/12/17 08:04:07;;;;;;;12.32;5.20;;;6.90;99.90;;;;;;4983795;28;20026;-89
2021/12/17 08:06:35;;;;;;;12.95;5.28;;;6.90;99.90;;;;;;4988590;28;20092;-89
2021/12/17 08:09:03;;;;;;;11.52;4.80;;;7.00;99.90;;;;;;5003344;28;20124;-87
2021/12/17 08:11:31;;;;;;;11.95;4.97;;;6.90;99.90;;;;;;4988280;28;20026;-89
2021/12/17 08:13:58;;;;;;;10.07;4.75;;;6.90;99.90;;;;;;4986376;28;20497;-88
2021/12/17 08:26:57;;;;;;;13.18;4.97;;;7.00;99.90;;;;;;5004851;28;20702;-90
2021/12/17 08:29:41;;;;;;;11.57;5.28;;;6.90;99.90;;;;;;4989407;28;20056;-88
2021/12/17 08:32:10;;;;;;;11.02;4.03;;;6.90;99.90;;;;;;4987347;28;20018;-88
2021/12/17 08:34:37;;;;;;;8.13;3.70;;;6.90;99.90;;;;;;4988058;28;20029;-88
2021/12/17 08:37:03;;;;;;;9.38;4.25;;;7.00;99.90;;;;;;4986968;28;20048;-89
2021/12/17 08:39:29;;;;;;;10.07;4.13;;;6.90;99.90;;;;;;4990713;28;20503;-91
2021/12/17 08:41:55;;;;;;;7.40;3.28;;;6.90;99.90;;;;;;5004608;28;20021;-90
2021/12/17 08:44:22;;;;;;;6.55;3.58;;;6.90;99.90;;;;;;4988891;28;20068;-88
2021/12/17 08:46:49;;;;;;;8.15;3.67;;;7.00;99.90;;;;;;5005827;28;20030;-89
2021/12/17 08:49:15;;;;;;;7.00;3.38;;;7.00;99.90;;;;;;4987014;28;20087;-90
2021/12/17 08:51:42;;;;;;;7.60;3.35;;;7.00;99.90;;;;;;4988517;28;20122;-89
2021/12/17 08:54:09;;;;;;;7.55;3.70;;;7.10;99.90;;;;;;4986318;28;20115;-90
2021/12/17 08:56:42;;;;;;;7.47;4.03;;;7.10;99.90;;;;;;4989759;28;20037;-89
2021/12/17 08:59:09;;;;;;;9.48;5.18;;;7.10;99.90;;;;;;4990052;28;20378;-89
2021/12/17 09:01:37;;;;;;;11.02;4.45;;;7.10;99.90;;;;;;4993472;28;20044;-90
2021/12/17 09:07:06;;;;;;;9.10;4.55;;;7.10;99.90;;;;;;5029038;23;20057;-73
2021/12/17 09:09:32;;;;;;;11.65;5.95;;;7.00;99.90;;;;;;5026919;28;20217;-74
2021/12/17 09:11:58;;;;;;;11.07;5.05;;;7.00;99.90;;;;;;5024742;28;20026;-73
2021/12/17 09:14:24;;;;;;;12.90;4.97;;;7.00;99.90;;;;;;5025767;28;20032;-74
2021/12/17 09:16:50;;;;;;;8.88;4.50;;;7.00;99.90;;;;;;5022053;28;20037;-74
2021/12/17 09:19:16;;;;;;;10.18;5.20;;;7.00;99.90;;;;;;5009528;28;20022;-74
2021/12/17 09:21:43;;;;;;;7.30;3.50;;;7.00;99.90;;;;;;5032206;23;20145;-77
2021/12/17 09:24:10;;;;;;;6.45;2.58;;;7.00;99.90;;;;;;4993622;28;20104;-78
2021/12/17 09:26:35;;;;;;;4.32;2.05;;;7.10;99.90;;;;;;5010836;28;20041;-77
2021/12/17 09:29:01;;;;;;;2.10;1.27;;;7.10;99.90;;;;;;5010481;28;20030;-77
2021/12/17 09:31:27;;;;;;;4.45;2.30;;;7.10;99.90;;;;;;5013958;28;20463;-80
2021/12/17 09:33:53;;;;;;;2.92;1.65;;;7.10;99.90;;;;;;4980366;28;20061;-78
2021/12/17 09:36:19;;;;;;;5.78;2.00;;;7.10;99.90;;;;;;4997695;28;20479;-76
2021/12/17 09:38:49;;;;;;;3.00;1.65;;;7.10;99.90;;;;;;5020179;28;20073;-78
2021/12/17 09:41:16;;;;;;;3.10;1.60;;;7.10;99.90;;;;;;5014115;28;20026;-81
2021/12/17 09:43:43;;;;;;;3.28;1.88;;;7.10;99.90;;;;;;5016825;28;20033;-79
2021/12/17 09:46:08;;;;;;;2.80;1.80;;;7.10;99.90;;;;;;5016940;28;20084;-79
2021/12/17 09:48:36;;;;;;;4.18;2.47;;;7.00;99.90;;;;;;5015170;28;20037;-77
2021/12/17 09:51:06;;;;;;;4.00;2.33;;;7.10;99.90;;;;;;4999039;28;20064;-78
2021/12/17 09:53:32;;;;;;;3.57;2.03;;;7.10;99.90;;;;;;5012485;28;20048;-79
2021/12/17 09:55:58;;;;;;;6.47;3.00;;;7.10;99.90;;;;;;4999329;28;20549;-77
2021/12/17 09:58:24;;;;;;;5.40;3.08;;;7.00;99.90;;;;;;4999551;28;20022;-78
2021/12/17 10:00:50;;;;;;;6.32;2.90;;;7.00;99.90;;;;;;4997177;28;20071;-77
2021/12/17 10:03:16;;;;;;;4.30;2.90;;;7.10;99.90;;;;;;4998470;28;20490;-77
2021/12/17 10:05:43;;;;;;;5.80;3.20;;;7.00;99.90;;;;;;5005579;28;20076;-78
2021/12/17 10:08:15;;;;;;;6.90;3.83;;;7.10;99.90;;;;;;4999284;28;20034;-78
2021/12/17 10:10:47;;;;;;;8.35;4.72;;;7.10;99.90;;;;;;4998325;28;20029;-77
2021/12/17 10:13:14;;;;;;;7.50;4.88;;;7.10;99.90;;;;;;5015482;28;20491;-77
2021/12/17 10:15:43;;;;;;;8.18;5.20;;;7.10;99.90;;;;;;4997079;28;20033;-78
2021/12/17 10:18:10;;;;;;;9.13;4.97;;;7.10;99.90;;;;;;4997046;28;20037;-78
2021/12/17 10:20:58;;;;;;;8.85;5.40;;;7.10;99.90;;;;;;4996698;28;20034;-78
2021/12/17 10:23:25;;;;;;;8.07;5.40;;;7.10;99.90;;;;;;5013014;28;20484;-78
2021/12/17 10:25:52;;;;;;;10.38;5.95;;;7.10;99.90;;;;;;5015988;28;20057;-75
2021/12/17 10:28:19;;;;;;;8.60;4.90;;;7.10;99.90;;;;;;5016267;28;20049;-77
2021/12/17 10:30:48;;;;;;;10.75;5.18;;;7.10;99.90;;;;;;4979727;28;20064;-78
2021/12/17 10:33:19;;;;;;;8.05;4.43;;;7.10;99.90;;;;;;5015129;28;20442;-77
2021/12/17 10:35:47;;;;;;;8.85;4.72;;;7.10;99.90;;;;;;4996179;28;20045;-78
2021/12/17 10:38:16;;;;;;;7.55;4.65;;;7.10;99.90;;;;;;5017009;28;20559;-79
2021/12/17 10:40:52;;;;;;;10.38;5.03;;;7.00;99.90;;;;;;5015927;28;20049;-78
2021/12/17 10:46:05;;;;;;;7.03;5.15;;;7.00;99.90;;;;;;5014729;28;20407;-77
2021/12/17 10:51:15;;;;;;;7.57;4.93;;;7.10;99.90;;;;;;5013427;28;20030;-78
2021/12/17 10:53:54;;;;;;;8.82;5.65;;;7.10;99.90;;;;;;5021253;28;20026;-79
2021/12/17 10:56:30;;;;;;;10.18;6.80;;;7.10;99.90;;;;;;4998462;28;20475;-79
2021/12/17 10:59:03;;;;;;;10.60;6.63;;;7.10;99.90;;;;;;5022474;28;20122;-78
2021/12/17 11:01:54;;;;;;;8.93;6.32;;;7.00;99.90;;;;;;5014878;28;20022;-78
2021/12/17 11:04:27;;;;;;;9.73;6.15;;;7.00;99.90;;;;;;5017535;28;20025;-77
2021/12/17 11:07:03;;;;;;;13.23;8.02;;;7.00;99.90;;;;;;5016343;28;20030;-77
2021/12/17 11:09:35;;;;;;;12.43;6.30;;;7.00;99.90;;;;;;5017149;28;20475;-76
2021/12/17 11:12:12;;;;;;;12.13;7.35;;;7.00;99.90;;;;;;5002405;28;20181;-79
2021/12/17 11:14:38;;;;;;;12.57;6.80;;;7.00;99.90;;;;;;5001811;28;20018;-77
2021/12/17 11:17:04;;;;;;;11.35;6.53;;;7.00;99.90;;;;;;5016505;28;20044;-78
2021/12/17 11:19:30;;;;;;;14.15;6.90;;;7.00;99.90;;;;;;4999620;28;20026;-79
2021/12/17 11:21:57;;;;;;;11.15;5.82;;;7.00;99.90;;;;;;5021138;28;20040;-78
2021/12/17 11:24:23;;;;;;;10.55;5.78;;;7.00;99.90;;;;;;5013850;28;20040;-77
2021/12/17 11:26:50;;;;;;;10.20;6.50;;;7.10;99.90;;;;;;5012001;28;20037;-77
2021/12/17 11:29:18;;;;;;;14.55;7.13;;;7.10;99.90;;;;;;5011981;28;20033;-78
2021/12/17 11:31:47;;;;;;;11.25;5.80;;;7.10;99.90;;;;;;4996184;28;20030;-78
2021/12/17 11:34:14;;;;;;;9.60;5.93;;;7.10;99.90;;;;;;5015958;28;20057;-77
2021/12/17 11:36:39;;;;;;;10.95;5.95;;;7.10;99.90;;;;;;4995379;28;20042;-77
2021/12/17 11:39:24;;;;;;;7.53;4.78;;;7.20;99.90;;;;;;5012815;28;20037;-78
2021/12/17 11:42:05;;;;;;;10.27;5.70;;;7.30;99.90;;;;;;5020304;28;20029;-78
2021/12/17 11:44:41;;;;;;;10.13;5.50;;;7.30;99.90;;;;;;5007048;28;20049;-78
2021/12/17 11:47:12;;;;;;;7.80;4.57;;;7.40;99.90;;;;;;5014526;28;20037;-78
2021/12/17 11:49:45;;;;;;;8.27;5.07;;;7.40;99.90;;;;;;5014016;28;20128;-77
2021/12/17 11:52:11;;;;;;;8.93;5.18;;;7.40;99.90;;;;;;5010643;28;20029;-78
2021/12/17 11:54:36;;;;;;;7.90;4.30;;;7.40;99.90;;;;;;5014617;28;20045;-79
2021/12/17 11:57:17;;;;;;;10.25;5.07;;;7.40;99.90;;;;;;5016240;28;20423;-80
2021/12/17 11:59:45;;;;;;;8.10;4.15;;;7.40;99.90;;;;;;5018798;28;20057;-79
2021/12/17 12:02:19;;;;;;;8.23;4.22;;;7.40;99.90;;;;;;4994844;28;20039;-79
2021/12/17 12:04:48;;;;;;;7.13;3.85;;;7.40;99.90;;;;;;5013615;28;20026;-79
2021/12/17 12:07:16;;;;;;;8.05;3.60;;;7.40;99.90;;;;;;4998189;28;20574;-79
2021/12/17 12:09:54;;;;;;;7.38;4.60;;;7.40;99.90;;;;;;4997714;28;20030;-79
2021/12/17 12:12:20;;;;;;;7.78;4.30;;;7.40;99.90;;;;;;4997017;28;20034;-77
2021/12/17 12:14:46;;;;;;;9.02;4.63;;;7.40;99.90;;;;;;5014468;28;20033;-79
2021/12/17 12:17:11;;;;;;;9.27;4.32;;;7.40;99.90;;;;;;4997457;28;20465;-79
2021/12/17 12:19:50;;;;;;;8.90;4.32;;;7.50;99.90;;;;;;5014128;28;20029;-80
2021/12/17 12:22:30;;;;;;;13.25;5.85;;;7.50;99.90;;;;;;5002653;28;20045;-80
2021/12/17 12:25:26;;;;;;;10.32;5.60;;;7.50;99.90;;;;;;5013409;28;20037;-81
2021/12/17 12:27:52;;;;;;;13.13;6.35;;;7.50;99.90;;;;;;5028046;28;20117;-78
2021/12/17 12:30:38;;;;;;;15.50;6.90;;;7.50;99.90;;;;;;4996717;28;20441;-77
2021/12/17 12:33:06;;;;;;;12.20;6.60;;;7.50;99.90;;;;;;5011377;28;20042;-77
2021/12/17 12:35:32;;;;;;;15.65;7.35;;;7.50;99.90;;;;;;5009910;28;20049;-76
2021/12/17 12:38:20;;;;;;;13.15;6.68;;;7.50;99.90;;;;;;5005036;28;20033;-76
2021/12/17 12:40:55;;;;;;;14.45;7.03;;;7.50;99.90;;;;;;5008360;28;20033;-76
2021/12/17 12:43:26;;;;;;;16.35;8.38;;;7.50;99.90;;;;;;5008396;28;20032;-75
2021/12/17 12:45:52;;;;;;;12.77;6.47;;;7.50;99.90;;;;;;5009756;28;20030;-75
2021/12/17 12:48:29;;;;;;;13.95;7.22;;;7.50;99.90;;;;;;4991237;28;20025;-76
2021/12/17 12:51:17;;;;;;;13.15;7.03;;;7.50;99.90;;;;;;5007308;28;20025;-75
2021/12/17 12:54:06;;;;;;;16.35;6.93;;;7.60;99.90;;;;;;4988370;28;20069;-76
2021/12/17 12:56:33;;;;;;;17.33;8.60;;;7.60;99.90;;;;;;5009712;28;20045;-76
2021/12/17 12:58:59;;;;;;;14.85;7.78;;;7.60;99.90;;;;;;5007352;28;20021;-76
2021/12/17 13:01:25;;;;;;;13.25;6.30;;;7.80;99.90;;;;;;5006751;28;20026;-76
2021/12/17 13:03:51;;;;;;;15.68;7.07;;;7.80;99.90;;;;;;4973741;28;20021;-76
2021/12/17 13:06:19;;;;;;;15.10;7.20;;;7.80;99.90;;;;;;4994106;28;20501;-76
2021/12/17 13:08:55;;;;;;;18.67;7.75;;;7.70;99.90;;;;;;4989037;28;20034;-76
2021/12/17 13:11:21;;;;;;;14.32;6.32;;;7.70;99.90;;;;;;4989114;28;20029;-76
2021/12/17 13:13:58;;;;;;;18.42;7.53;;;7.70;99.90;;;;;;5012554;28;20423;-75
2021/12/17 13:24:19;;;;;;;11.27;6.13;;;7.70;99.90;;;;;;5006452;28;20025;-76
2021/12/17 13:27:09;;;;;;;18.67;9.25;;;7.70;99.90;;;;;;4987470;28;20048;-75
2021/12/17 13:29:38;;;;;;;53.33;23.00;;;7.70;99.90;;;;;;4991644;28;20034;-75
2021/12/17 13:32:09;;;;;;;32.33;14.93;;;7.90;99.90;;;;;;5008942;28;20022;-76
2021/12/17 13:34:49;;;;;;;21.23;8.93;;;8.00;99.90;;;;;;5007380;28;20030;-75
2021/12/17 13:37:20;;;;;;;17.02;8.23;;;8.10;99.90;;;;;;5009019;28;20061;-76
2021/12/17 13:39:52;;;;;;;15.02;6.90;;;8.00;99.90;;;;;;4992045;28;20029;-76
2021/12/17 13:42:25;;;;;;;13.02;6.55;;;8.00;99.90;;;;;;5009810;28;20391;-76
2021/12/17 13:44:53;;;;;;;11.43;6.32;;;7.90;99.90;;;;;;5017400;28;20026;-76
2021/12/17 13:47:19;;;;;;;12.30;6.03;;;7.90;99.90;;;;;;4992943;28;20033;-75
2021/12/17 13:50:05;;;;;;;10.98;5.70;;;7.90;99.90;;;;;;5009134;28;20030;-76
2021/12/17 13:52:32;;;;;;;13.20;5.38;;;7.80;99.90;;;;;;4990124;28;20034;-76
2021/12/17 13:55:00;;;;;;;12.40;5.93;;;7.80;99.90;;;;;;5008939;28;20491;-75
2021/12/17 13:57:29;;;;;;;12.52;6.05;;;7.80;99.90;;;;;;5010401;28;20061;-75
2021/12/17 14:00:17;;;;;;;10.93;6.22;;;7.80;99.90;;;;;;4990340;28;20033;-76
2021/12/17 14:02:45;;;;;;;12.20;5.75;;;7.80;99.90;;;;;;5009132;28;20022;-75
2021/12/17 14:05:21;;;;;;;10.90;5.72;;;7.90;99.90;;;;;;4991980;28;20026;-75
2021/12/17 14:07:52;;;;;;;12.57;4.53;;;7.90;99.90;;;;;;5008901;28;20075;-75
2021/12/17 14:10:20;;;;;;;;;;;7.90;99.90;;;;;;4990977;28;20022;-75
2021/12/17 14:12:45;;;;;;;8.70;3.95;;;7.90;99.90;;;;;;5008087;28;20437;-76
2021/12/17 14:15:17;;;;;;;8.35;4.18;;;7.80;99.90;;;;;;4993978;28;20030;-76
2021/12/17 14:17:46;;;;;;;7.80;3.97;;;7.90;99.90;;;;;;4995440;28;20083;-75
2021/12/17 14:20:14;;;;;;;8.20;4.28;;;7.90;99.90;;;;;;4977145;28;20048;-76
2021/12/17 14:22:43;;;;;;;6.93;3.63;;;7.90;99.90;;;;;;5010127;28;20530;-76
2021/12/17 14:25:44;;;;;;;8.07;3.90;;;7.90;99.90;;;;;;5011840;28;20110;-75
2021/12/17 14:28:11;;;;;;;8.60;3.88;;;7.90;99.90;;;;;;5009832;28;20025;-75
2021/12/17 14:30:38;;;;;;;5.68;3.08;;;7.90;99.90;;;;;;5012256;28;20057;-75
2021/12/17 14:33:18;;;;;;;5.78;3.42;;;8.00;99.90;;;;;;5012697;28;20400;-76
2021/12/17 14:35:57;;;;;;;5.90;3.43;;;8.00;99.90;;;;;;4992929;28;20041;-75
2021/12/17 14:38:44;;;;;;;6.05;2.90;;;8.00;99.90;;;;;;5014943;28;20092;-75
2021/12/17 14:41:21;;;;;;;5.82;3.28;;;8.00;99.90;;;;;;5014928;28;20033;-75
2021/12/17 14:43:58;;;;;;;4.75;2.95;;;8.00;99.90;;;;;;5011477;28;20029;-75
2021/12/17 14:46:28;;;;;;;5.28;3.42;;;8.00;99.90;;;;;;4994705;28;20073;-75
2021/12/17 15:01:10;;;;;;;5.35;3.35;;;8.10;99.90;;;;;;5013168;28;20033;-74
2021/12/17 15:03:42;;;;;;;6.43;3.78;;;8.10;99.90;;;;;;4998035;28;20033;-72
2021/12/17 15:06:15;;;;;;;8.68;4.85;;;8.10;99.90;;;;;;5009910;28;20026;-74
2021/12/17 15:08:43;;;;;;;6.70;3.58;;;8.10;99.90;;;;;;5007700;28;20117;-76
2021/12/17 15:11:25;;;;;;;7.82;4.25;;;8.20;99.90;;;;;;5011420;28;20045;-76
2021/12/17 15:13:52;;;;;;;10.10;5.57;;;8.20;99.90;;;;;;5012691;28;20057;-78
2021/12/17 15:16:18;;;;;;;8.02;4.82;;;8.20;99.90;;;;;;5013412;28;20490;-75
2021/12/17 15:18:43;;;;;;;10.55;5.50;;;8.20;99.90;;;;;;5008617;28;20033;-75
2021/12/17 15:21:09;;;;;;;10.85;5.70;;;8.20;99.90;;;;;;4994355;28;20524;-76
2021/12/17 15:23:36;;;;;;;12.95;6.50;;;8.20;99.90;;;;;;4994730;28;20032;-74
2021/12/17 15:26:03;;;;;;;10.32;6.18;;;8.20;99.90;;;;;;4991375;28;20037;-74
2021/12/17 15:28:29;;;;;;;13.18;6.88;;;8.20;99.90;;;;;;5006705;28;20030;-74
2021/12/17 15:31:02;;;;;;;12.27;7.10;;;8.20;99.90;;;;;;4991743;28;20030;-76
2021/12/17 15:33:28;;;;;;;8.57;5.35;;;8.20;99.90;;;;;;5007898;28;20049;-74
2021/12/17 15:35:55;;;;;;;7.45;5.50;;;8.20;99.90;;;;;;5009735;28;20061;-75
2021/12/17 15:38:23;;;;;;;8.70;5.30;;;8.20;99.90;;;;;;5009238;28;20038;-74
2021/12/17 15:40:50;;;;;;;9.50;5.82;;;8.20;99.90;;;;;;5010456;28;20442;-74
2021/12/17 15:43:18;;;;;;;9.60;6.10;;;8.20;99.90;;;;;;5008571;28;20065;-75
2021/12/17 15:45:46;;;;;;;11.90;7.25;;;8.20;99.90;;;;;;4990958;28;20084;-74
2021/12/17 15:48:17;;;;;;;9.88;6.18;;;8.20;99.90;;;;;;5009249;28;20065;-75
2021/12/17 15:50:43;;;;;;;;;;;8.20;99.90;;;;;;4992303;28;20120;-76
2021/12/17 15:53:09;;;;;;;10.52;6.13;;;8.20;99.90;;;;;;5009913;28;20055;-75
2021/12/17 15:55:35;;;;;;;9.85;6.55;;;8.20;99.90;;;;;;5009693;28;20038;-74
2021/12/17 15:58:02;;;;;;;8.43;4.97;;;8.20;99.90;;;;;;4993634;28;20033;-74
2021/12/17 16:00:32;;;;;;;8.40;5.57;;;8.20;99.90;;;;;;5010588;28;20435;-75
2021/12/17 16:03:00;;;;;;;8.73;5.57;;;8.10;99.90;;;;;;5010560;28;20102;-75
2021/12/17 16:05:26;;;;;;;10.32;5.68;;;8.10;99.90;;;;;;4977839;28;20038;-74
2021/12/17 16:07:56;;;;;;;9.55;5.65;;;8.10;99.90;;;;;;5009610;28;20109;-74
2021/12/17 16:21:00;;;;;;;15.90;9.05;;;8.00;99.90;;;;;;5011085;28;20036;-77
2021/12/17 16:21:41;;;;;;;20.48;11.40;;;8.00;99.90;;;;;;5008960;28;20026;-77
2021/12/17 16:24:06;;;;;;;21.98;12.32;;;8.00;99.90;;;;;;5008556;28;20088;-76
2021/12/17 16:26:32;;;;;;;18.00;11.27;;;7.90;99.90;;;;;;4975429;28;20034;-77
2021/12/17 16:28:58;;;;;;;20.02;11.32;;;7.90;99.90;;;;;;5009194;28;20483;-77
2021/12/17 16:31:29;;;;;;;15.90;9.95;;;7.80;99.90;;;;;;4988771;28;20053;-76
2021/12/17 16:34:01;;;;;;;17.60;10.52;;;7.80;99.90;;;;;;5007097;28;20403;-76
2021/12/17 16:36:28;;;;;;;17.80;11.07;;;7.80;99.90;;;;;;5008431;28;20037;-77
2021/12/17 16:38:55;;;;;;;14.27;9.40;;;7.80;99.90;;;;;;4986411;28;20104;-75
2021/12/17 16:41:23;;;;;;;15.57;8.63;;;7.80;99.90;;;;;;5005172;28;20111;-75
2021/12/17 16:43:57;;;;;;;13.05;7.72;;;7.80;99.90;;;;;;5009027;28;20440;-76